Time;durP1;ratioP1;P1;durP2;ratioP2;P2;SDS_P1;SDS_P2;PMS_P1;PMS_P2;Temp;Humidity;BMP_temperature;BMP_pressure;BME280_temperature;BME280_humidity;BME280_pressure;Samples;Min_cycle;Max_cycle;Signal;HPM_P1;HPM_P2
2024/01/19 00:00:43;;;;;;;0.50;0.50;;;;;;;-0.37;73.26;98512.84;5068294;28;20423;-62
2024/01/19 00:03:08;;;;;;;0.50;0.50;;;;;;;-0.38;73.66;98518.75;5068093;28;20024;-62
2024/01/19 00:05:33;;;;;;;0.60;0.60;;;;;;;-0.48;73.57;98499.19;5068120;28;20032;-62
2024/01/19 00:07:59;;;;;;;0.50;0.50;;;;;;;-0.41;74.03;98523.84;5068085;28;20025;-62
2024/01/19 00:10:24;;;;;;;0.50;0.50;;;;;;;-0.47;73.97;98509.38;5068066;28;20075;-62
2024/01/19 00:12:49;;;;;;;0.52;0.52;;;;;;;-0.52;73.38;98519.56;5066804;28;20031;-61
2024/01/19 00:15:15;;;;;;;0.85;0.82;;;;;;;-0.61;74.11;98514.41;5068103;28;20028;-61
2024/01/19 00:17:40;;;;;;;0.57;0.57;;;;;;;-0.65;74.59;98505.00;5083294;28;20025;-62
2024/01/19 00:20:10;;;;;;;5.65;1.50;;;;;;;-0.65;74.99;98507.56;5067998;28;20078;-62
2024/01/19 00:22:35;;;;;;;0.50;0.50;;;;;;;-0.68;75.31;98505.84;5067851;28;20469;-63
2024/01/19 00:25:02;;;;;;;0.50;0.50;;;;;;;-0.79;75.37;98500.69;5067897;28;20032;-62
2024/01/19 00:27:29;;;;;;;0.50;0.50;;;;;;;-0.88;75.19;98505.72;5067717;28;20029;-62
2024/01/19 00:29:54;;;;;;;1.13;1.02;;;;;;;-0.87;75.04;98515.06;5067652;28;20056;-62
2024/01/19 00:32:20;;;;;;;0.50;0.50;;;;;;;-0.95;75.02;98509.91;5066461;28;20021;-62
2024/01/19 00:34:45;;;;;;;1.30;1.20;;;;;;;-1.02;75.05;98503.91;5067564;28;20036;-62
2024/01/19 00:37:11;;;;;;;1.40;0.98;;;;;;;-1.00;75.33;98512.44;5066333;28;20089;-62
2024/01/19 00:39:36;;;;;;;0.60;0.60;;;;;;;-1.08;75.42;98529.34;5067650;28;20020;-63
2024/01/19 00:42:02;;;;;;;0.50;0.50;;;;;;;-1.12;74.96;98522.53;5067420;28;20021;-61
2024/01/19 00:44:28;;;;;;;0.60;0.60;;;;;;;-1.12;74.94;98530.16;5067510;28;20063;-61
2024/01/19 00:46:54;;;;;;;0.60;0.60;;;;;;;-1.15;74.66;98523.34;5065996;28;20168;-61
2024/01/19 00:49:19;;;;;;;0.50;0.50;;;;;;;-1.16;74.79;98528.41;5067243;28;20179;-61
2024/01/19 00:51:45;;;;;;;0.50;0.50;;;;;;;-1.12;74.25;98537.81;5067220;28;20041;-61
2024/01/19 00:54:10;;;;;;;0.88;0.88;;;;;;;-1.16;73.56;98529.28;5065646;28;20049;-61
2024/01/19 00:56:35;;;;;;;0.60;0.60;;;;;;;-1.19;73.62;98533.47;5067550;28;20021;-61
2024/01/19 00:59:01;;;;;;;0.60;0.60;;;;;;;-1.21;73.85;98524.97;5067186;28;20124;-61
2024/01/19 01:01:26;;;;;;;0.50;0.50;;;;;;;-1.20;73.91;98525.00;5065778;28;20093;-61
2024/01/19 01:03:51;;;;;;;0.60;0.60;;;;;;;-1.21;74.08;98535.16;5065545;28;20028;-62
2024/01/19 01:06:17;;;;;;;0.55;0.55;;;;;;;-1.25;72.83;98530.03;5067065;28;20330;-63
2024/01/19 01:08:42;;;;;;;5.78;1.80;;;;;;;-1.26;72.58;98537.66;5066904;28;20068;-61
2024/01/19 01:11:08;;;;;;;0.60;0.60;;;;;;;-1.23;72.38;98539.41;5066584;28;20052;-61
2024/01/19 01:13:33;;;;;;;0.60;0.60;;;;;;;-1.26;70.76;98546.16;5066834;28;20048;-61
2024/01/19 01:15:58;;;;;;;0.82;0.82;;;;;;;-1.20;70.64;98544.53;5066581;28;20412;-62
2024/01/19 01:18:24;;;;;;;0.57;0.57;;;;;;;-1.24;71.16;98546.19;5067156;28;20028;-62
2024/01/19 01:20:50;;;;;;;0.60;0.60;;;;;;;-1.23;71.25;98552.97;5066712;28;20021;-62
2024/01/19 01:23:16;;;;;;;0.70;0.70;;;;;;;-1.22;71.22;98559.78;5066409;28;20040;-62
2024/01/19 01:25:41;;;;;;;0.60;0.60;;;;;;;-1.19;70.34;98570.00;5066735;28;20024;-61
2024/01/19 01:28:06;;;;;;;6.70;1.98;;;;;;;-1.15;70.76;98568.34;5066688;28;20047;-61
2024/01/19 01:30:32;;;;;;;0.95;0.95;;;;;;;-1.16;69.74;98572.56;5066563;28;20103;-61
2024/01/19 01:32:57;;;;;;;0.60;0.60;;;;;;;-1.15;69.15;98565.78;5065135;28;20017;-61
2024/01/19 01:35:22;;;;;;;0.50;0.50;;;;;;;-1.07;68.85;98569.25;5066252;28;20027;-62
2024/01/19 01:37:48;;;;;;;0.50;0.50;;;;;;;-1.08;68.95;98574.31;5066225;28;20044;-61
2024/01/19 01:40:13;;;;;;;0.60;0.60;;;;;;;-1.09;68.66;98573.50;5066370;28;20033;-62
2024/01/19 01:42:39;;;;;;;0.50;0.50;;;;;;;-1.17;69.24;98570.00;5066243;28;20021;-62
2024/01/19 01:45:05;;;;;;;0.82;0.82;;;;;;;-1.10;69.46;98584.50;5066176;28;20025;-61
2024/01/19 01:47:31;;;;;;;0.60;0.60;;;;;;;-1.11;69.37;98575.16;5066165;28;20024;-62
2024/01/19 01:49:57;;;;;;;0.50;0.50;;;;;;;-1.09;69.70;98582.81;5065984;28;20028;-60
2024/01/19 01:52:22;;;;;;;0.70;0.70;;;;;;;-1.08;69.94;98559.03;5066160;28;20029;-64
2024/01/19 01:54:51;;;;;;;0.70;0.70;;;;;;;-1.10;69.45;98571.75;5065981;28;20512;-61
2024/01/19 01:57:19;;;;;;;0.60;0.60;;;;;;;-1.08;69.08;98582.81;5065647;28;20029;-60
2024/01/19 01:59:44;;;;;;;0.60;0.60;;;;;;;-1.08;68.12;98579.41;5066066;28;20052;-61
2024/01/19 02:02:09;;;;;;;1.00;1.00;;;;;;;-1.10;68.61;98576.03;5065967;28;20024;-61
2024/01/19 02:04:35;;;;;;;0.52;0.52;;;;;;;-1.10;66.89;98584.50;5065899;28;20032;-61
2024/01/19 02:07:00;;;;;;;0.57;0.57;;;;;;;-1.09;67.03;98583.69;5065873;28;20435;-61
2024/01/19 02:09:26;;;;;;;0.60;0.60;;;;;;;-1.03;66.96;98583.72;5065806;28;20031;-61
2024/01/19 02:11:52;;;;;;;0.45;0.45;;;;;;;-1.04;66.29;98582.00;5065366;28;20021;-62
2024/01/19 02:14:18;;;;;;;0.50;0.50;;;;;;;-1.08;67.16;98580.28;5065654;28;20027;-62
2024/01/19 02:16:43;;;;;;;0.50;0.50;;;;;;;-1.02;67.50;98576.94;5065760;28;20163;-62
2024/01/19 02:19:08;;;;;;;0.60;0.60;;;;;;;-1.03;67.95;98588.81;5065461;28;20024;-61
2024/01/19 02:21:34;;;;;;;0.60;0.60;;;;;;;-1.04;68.20;98579.47;5065738;28;20067;-61
2024/01/19 02:24:01;;;;;;;0.60;0.60;;;;;;;-1.03;68.24;98585.41;5065542;28;20401;-61
2024/01/19 02:26:34;;;;;;;0.88;0.88;;;;;;;-1.07;67.48;98587.06;5065393;28;20025;-61
2024/01/19 02:29:00;;;;;;;0.60;0.60;;;;;;;-1.03;67.44;98586.28;5065670;28;20025;-61
2024/01/19 02:31:25;;;;;;;0.60;0.60;;;;;;;-1.02;67.31;98577.78;5065293;28;20036;-60
2024/01/19 02:33:51;;;;;;;0.50;0.50;;;;;;;-1.04;66.91;98579.47;5065289;28;20032;-60
2024/01/19 02:36:17;;;;;;;0.70;0.70;;;;;;;-0.92;66.49;98588.91;5065304;28;20337;-62
2024/01/19 02:38:42;;;;;;;0.60;0.60;;;;;;;-0.96;67.08;98579.56;5064979;28;20085;-61
2024/01/19 02:41:07;;;;;;;0.60;0.60;;;;;;;-0.92;67.26;98585.50;5063818;28;20021;-61
2024/01/19 02:43:33;;;;;;;0.60;0.60;;;;;;;-0.82;66.90;98589.00;5065304;28;20017;-61
2024/01/19 02:45:58;;;;;;;0.50;0.50;;;;;;;-0.85;66.88;98584.75;5064707;28;20378;-61
2024/01/19 02:48:24;;;;;;;0.52;0.52;;;;;;;-0.82;67.23;98582.22;5064945;28;20021;-61
2024/01/19 02:50:49;;;;;;;0.50;0.50;;;;;;;-0.82;66.88;98582.22;5065239;28;20021;-61
2024/01/19 02:53:14;;;;;;;0.50;0.50;;;;;;;-0.80;67.74;98577.97;5065036;28;20104;-60
2024/01/19 02:55:40;;;;;;;0.50;0.50;;;;;;;-0.75;67.95;98588.19;5064917;28;20029;-60
2024/01/19 02:58:05;;;;;;;0.60;0.60;;;;;;;-0.71;67.82;98583.97;5064925;28;20108;-61
2024/01/19 03:00:31;;;;;;;0.60;0.60;;;;;;;-0.65;67.96;98592.53;5064919;28;20021;-61
2024/01/19 03:02:56;;;;;;;0.50;0.50;;;;;;;-0.69;68.26;98578.06;5065186;28;20046;-60
2024/01/19 03:05:22;;;;;;;0.60;0.60;;;;;;;-0.64;68.63;98585.75;5064878;28;20048;-61
2024/01/19 03:07:47;;;;;;;2.92;1.02;;;;;;;-0.60;69.56;98591.72;5064850;28;20086;-61
2024/01/19 03:10:12;;;;;;;0.60;0.60;;;;;;;-0.61;70.00;98587.47;5064880;28;20055;-61
2024/01/19 03:12:37;;;;;;;39.65;3.10;;;;;;;-0.64;70.81;98590.84;5064946;28;20029;-61
2024/01/19 03:15:04;;;;;;;0.60;0.60;;;;;;;-0.64;71.34;98591.69;5064709;28;20021;-62
2024/01/19 03:17:29;;;;;;;0.60;0.60;;;;;;;-0.68;71.88;98595.06;5080014;28;20047;-61
2024/01/19 03:19:55;;;;;;;1.58;1.40;;;;;;;-0.69;72.45;98597.59;5064562;28;20045;-63
2024/01/19 03:22:20;;;;;;;0.50;0.50;;;;;;;-0.70;72.99;98589.09;5064580;28;20020;-62
2024/01/19 03:24:45;;;;;;;0.50;0.50;;;;;;;-0.74;73.24;98584.81;5067164;28;20017;-61
2024/01/19 03:27:11;;;;;;;0.70;0.70;;;;;;;-0.67;73.40;98595.94;5068800;28;20119;-61
2024/01/19 03:29:36;;;;;;;0.68;0.68;;;;;;;-0.60;73.61;98595.13;5069106;28;20024;-62
2024/01/19 03:32:01;;;;;;;0.60;0.60;;;;;;;-0.63;73.83;98597.66;5068677;28;20032;-61
2024/01/19 03:34:27;;;;;;;1.60;1.50;;;;;;;-0.65;73.90;98592.53;5068606;28;20080;-61
2024/01/19 03:36:52;;;;;;;0.60;0.60;;;;;;;-0.66;73.92;98590.84;5067468;28;20112;-61
2024/01/19 03:39:18;;;;;;;0.60;0.60;;;;;;;-0.69;74.14;98584.84;5068613;28;20021;-60
2024/01/19 03:41:43;;;;;;;0.60;0.60;;;;;;;-0.65;74.37;98591.66;5068964;28;20025;-62
2024/01/19 03:44:09;;;;;;;1.67;0.98;;;;;;;-0.69;74.73;98592.50;5068613;28;20031;-61
2024/01/19 03:46:34;;;;;;;0.50;0.50;;;;;;;-0.78;75.21;98590.72;5068396;28;20020;-62
2024/01/19 03:49:00;;;;;;;0.52;0.52;;;;;;;-0.76;75.44;98596.69;5068199;28;20025;-61
2024/01/19 03:51:25;;;;;;;0.50;0.50;;;;;;;-0.72;75.84;98605.22;5068256;28;20560;-61
2024/01/19 03:53:50;;;;;;;12.38;1.15;;;;;;;-0.68;76.08;98609.50;5068179;28;20172;-61
2024/01/19 03:56:16;;;;;;;1.02;0.70;;;;;;;-0.67;76.37;98601.84;5068340;28;20029;-61
2024/01/19 03:58:41;;;;;;;0.60;0.60;;;;;;;-0.62;76.66;98617.19;5066864;28;20028;-61
2024/01/19 04:01:07;;;;;;;3.13;1.08;;;;;;;-0.63;76.81;98612.94;5068211;28;20040;-61
2024/01/19 04:03:33;;;;;;;0.60;0.60;;;;;;;-0.56;77.16;98616.41;5068213;28;20028;-61
2024/01/19 04:05:59;;;;;;;0.60;0.60;;;;;;;-0.54;77.11;98618.09;5067979;28;20031;-61
2024/01/19 04:08:24;;;;;;;1.25;1.25;;;;;;;-0.52;77.17;98624.06;5068230;28;20537;-62
2024/01/19 04:10:50;;;;;;;5.07;0.80;;;;;;;-0.48;77.34;98624.09;5067883;28;20025;-62
2024/01/19 04:13:15;;;;;;;0.60;0.60;;;;;;;-0.48;77.33;98631.75;5068196;28;20143;-62
2024/01/19 04:15:40;;;;;;;1.73;0.82;;;;;;;-0.45;77.22;98630.09;5067924;28;20025;-61
2024/01/19 04:18:06;;;;;;;0.60;0.60;;;;;;;-0.56;77.26;98612.13;5067874;28;20027;-60
2024/01/19 04:20:31;;;;;;;0.60;0.60;;;;;;;-0.39;77.22;98630.13;5067912;28;20025;-61
2024/01/19 04:22:56;;;;;;;0.50;0.50;;;;;;;-0.40;76.74;98633.50;5067745;28;20021;-63
2024/01/19 04:25:22;;;;;;;0.60;0.60;;;;;;;-0.27;76.27;98641.25;5067816;28;20050;-61
2024/01/19 04:27:47;;;;;;;4.32;1.00;;;;;;;-0.30;76.19;98642.09;5067619;28;20147;-61
2024/01/19 04:30:13;;;;;;;2.70;1.45;;;;;;;-0.34;75.93;98647.16;5067696;28;20070;-61
2024/01/19 04:32:38;;;;;;;0.60;0.60;;;;;;;-0.32;75.22;98653.97;5067484;28;20021;-61
2024/01/19 04:35:04;;;;;;;0.50;0.50;;;;;;;-0.43;74.59;98650.50;5067247;28;20055;-62
2024/01/19 04:37:30;;;;;;;0.60;0.60;;;;;;;-0.50;73.88;98649.59;5067401;28;20097;-62
2024/01/19 04:39:55;;;;;;;0.60;0.60;;;;;;;-0.50;73.95;98654.69;5067481;28;20029;-61
2024/01/19 04:42:20;;;;;;;0.45;0.45;;;;;;;-0.58;73.61;98631.69;5067644;28;20028;-61
2024/01/19 04:44:46;;;;;;;0.60;0.60;;;;;;;-0.45;73.13;98657.28;5067406;28;20464;-61
2024/01/19 04:47:11;;;;;;;0.60;0.60;;;;;;;-0.49;73.39;98664.03;5066073;28;20025;-61
2024/01/19 04:49:36;;;;;;;3.80;1.70;;;;;;;-0.48;73.68;98662.34;5067300;28;20021;-61
2024/01/19 04:52:02;;;;;;;0.50;0.50;;;;;;;-0.45;73.80;98667.47;5065954;28;20025;-61
2024/01/19 04:54:27;;;;;;;1.70;1.50;;;;;;;-0.44;74.22;98677.69;5066940;28;20109;-60
2024/01/19 04:56:53;;;;;;;0.60;0.60;;;;;;;-0.42;74.26;98677.69;5067306;28;20017;-61
2024/01/19 04:59:18;;;;;;;0.70;0.70;;;;;;;-0.45;74.68;98672.56;5066995;28;20025;-61
2024/01/19 05:01:44;;;;;;;1.08;1.02;;;;;;;-0.45;73.77;98681.09;5065567;28;20047;-62
2024/01/19 05:04:09;;;;;;;0.50;0.50;;;;;;;-0.47;74.78;98675.09;5066727;28;20029;-62
2024/01/19 05:06:35;;;;;;;0.50;0.50;;;;;;;-0.55;74.59;98685.25;5066961;28;20038;-60
2024/01/19 05:09:00;;;;;;;6.30;1.70;;;;;;;-0.53;74.66;98688.63;5066966;28;20031;-61
2024/01/19 05:11:25;;;;;;;0.85;0.85;;;;;;;-0.53;74.94;98691.19;5066720;28;20099;-61
2024/01/19 05:13:51;;;;;;;12.48;1.95;;;;;;;-0.55;74.04;98699.66;5066753;28;20021;-61
2024/01/19 05:16:16;;;;;;;0.50;0.50;;;;;;;-0.50;74.98;98714.16;5066673;28;20028;-61
2024/01/19 05:18:42;;;;;;;0.50;0.50;;;;;;;-0.55;74.24;98723.47;5066636;28;20029;-61
2024/01/19 05:21:07;;;;;;;0.60;0.60;;;;;;;-0.58;75.11;98710.72;5066699;28;20158;-62
2024/01/19 05:23:33;;;;;;;0.63;0.52;;;;;;;-0.54;75.36;98730.28;5066623;28;20107;-61
2024/01/19 05:25:58;;;;;;;0.50;0.50;;;;;;;-0.63;75.22;98723.41;5066646;28;20097;-61
2024/01/19 05:28:24;;;;;;;0.50;0.50;;;;;;;-0.60;75.30;98725.13;5066413;28;20051;-61
2024/01/19 05:30:49;;;;;;;2.58;1.50;;;;;;;-0.67;75.47;98738.66;5066410;28;20021;-62
2024/01/19 05:33:15;;;;;;;0.50;0.50;;;;;;;-0.72;75.19;98730.09;5066554;28;20029;-62
2024/01/19 05:35:40;;;;;;;0.52;0.52;;;;;;;-0.67;75.17;98733.56;5066357;28;20029;-62
2024/01/19 05:38:05;;;;;;;0.50;0.50;;;;;;;-0.75;74.28;98747.06;5066242;28;20025;-61
2024/01/19 05:40:31;;;;;;;0.50;0.50;;;;;;;-0.77;74.12;98747.91;5066280;28;20472;-61
2024/01/19 05:42:56;;;;;;;0.60;0.60;;;;;;;-0.82;74.77;98747.84;5066326;28;20052;-61
2024/01/19 05:45:21;;;;;;;0.60;0.60;;;;;;;-0.86;74.73;98761.38;5066312;28;20032;-62
2024/01/19 05:47:47;;;;;;;0.50;0.50;;;;;;;-0.97;74.50;98770.56;5065535;28;20029;-61
2024/01/19 05:50:12;;;;;;;0.50;0.50;;;;;;;-1.03;73.98;98772.25;5066008;28;20020;-61
2024/01/19 05:52:37;;;;;;;0.50;0.50;;;;;;;-1.07;74.46;98779.81;5065702;28;20021;-60
2024/01/19 05:55:05;;;;;;;0.60;0.60;;;;;;;-1.15;74.81;98783.09;5066109;28;20055;-61
2024/01/19 05:57:30;;;;;;;0.50;0.50;;;;;;;-1.22;75.34;98781.34;5065952;28;20029;-60
2024/01/19 05:59:55;;;;;;;0.50;0.50;;;;;;;-1.27;75.02;98791.47;5065625;28;20354;-61
2024/01/19 06:02:21;;;;;;;0.50;0.50;;;;;;;-1.30;74.37;98788.88;5065815;28;20020;-60
2024/01/19 06:04:46;;;;;;;0.70;0.70;;;;;;;-1.29;74.90;98794.81;5064400;28;20057;-62
2024/01/19 06:07:12;;;;;;;0.77;0.77;;;;;;;-1.32;75.32;98799.84;5065925;28;20017;-63
2024/01/19 06:09:38;;;;;;;0.57;0.57;;;;;;;-1.36;74.79;98804.06;5065729;28;20409;-63
2024/01/19 06:12:03;;;;;;;1.02;0.80;;;;;;;-1.39;75.41;98806.56;5065410;28;20488;-64
2024/01/19 06:14:29;;;;;;;0.55;0.55;;;;;;;-1.42;74.91;98814.16;5064518;28;20039;-64
2024/01/19 06:16:54;;;;;;;0.52;0.52;;;;;;;-1.47;74.95;98810.69;5065865;28;20088;-64
2024/01/19 06:19:20;;;;;;;0.50;0.50;;;;;;;-1.56;75.53;98806.31;5065490;28;20029;-63
2024/01/19 06:21:45;;;;;;;0.60;0.60;;;;;;;-1.62;74.90;98815.59;5065524;28;20017;-63
2024/01/19 06:24:15;;;;;;;0.88;0.63;;;;;;;-1.58;75.23;98823.25;5080772;28;20025;-63
2024/01/19 06:26:48;;;;;;;0.47;0.47;;;;;;;-1.67;75.85;98829.03;5065480;28;20021;-64
2024/01/19 06:29:14;;;;;;;0.52;0.52;;;;;;;-1.62;75.42;98835.94;5064252;28;20070;-65
2024/01/19 06:31:46;;;;;;;0.60;0.60;;;;;;;-1.66;75.44;98839.25;5065391;28;20020;-62
2024/01/19 06:34:13;;;;;;;0.80;0.80;;;;;;;-1.70;75.19;98839.19;5065190;28;20036;-63
2024/01/19 06:36:38;;;;;;;0.52;0.52;;;;;;;-1.72;75.94;98836.59;5065278;28;20029;-62
2024/01/19 06:39:04;;;;;;;0.60;0.60;;;;;;;-1.70;75.13;98846.81;5065186;28;20029;-62
2024/01/19 06:41:30;;;;;;;0.60;0.60;;;;;;;-1.71;75.26;98850.19;5065115;28;20118;-62
2024/01/19 06:43:56;;;;;;;0.47;0.47;;;;;;;-1.65;75.62;98847.75;5065219;28;20385;-63
2024/01/19 06:46:21;;;;;;;0.70;0.70;;;;;;;-1.63;75.73;98862.19;5065324;28;20025;-62
2024/01/19 06:48:46;;;;;;;0.40;0.40;;;;;;;-1.73;75.98;98854.41;5065180;28;20067;-64
2024/01/19 06:51:23;;;;;;;0.60;0.60;;;;;;;-1.79;75.45;98860.25;5065091;28;20020;-63
2024/01/19 06:53:49;;;;;;;0.60;0.60;;;;;;;-1.79;75.27;98855.16;5079741;28;20048;-63
2024/01/19 06:56:14;;;;;;;0.70;0.70;;;;;;;-1.81;75.81;98856.81;5064226;28;20040;-63
2024/01/19 06:58:40;;;;;;;0.50;0.50;;;;;;;-1.79;76.29;98866.19;5064077;28;20025;-63
2024/01/19 07:01:05;;;;;;;0.55;0.55;;;;;;;-1.77;76.39;98854.34;5064573;28;20074;-64
2024/01/19 07:03:31;;;;;;;0.60;0.60;;;;;;;-1.76;76.54;98863.69;5064205;28;20052;-63
2024/01/19 07:05:56;;;;;;;0.70;0.70;;;;;;;-1.76;76.39;98871.31;5063913;28;20103;-63
2024/01/19 07:08:21;;;;;;;0.52;0.52;;;;;;;-1.75;75.84;98879.81;5064288;28;20021;-63
2024/01/19 07:10:48;;;;;;;0.60;0.60;;;;;;;-1.70;76.02;98874.81;5064152;28;20048;-64
2024/01/19 07:13:15;;;;;;;0.60;0.60;;;;;;;-1.69;76.43;98891.81;5063978;28;20021;-64
2024/01/19 07:15:40;;;;;;;0.88;0.80;;;;;;;-1.67;76.19;98890.13;5063732;28;20071;-64
2024/01/19 07:18:05;;;;;;;0.60;0.60;;;;;;;-1.70;76.75;98884.97;5064116;28;20029;-64
2024/01/19 07:20:31;;;;;;;0.60;0.60;;;;;;;-1.76;76.29;98870.47;5064054;28;20025;-64
2024/01/19 07:22:59;;;;;;;4.43;1.80;;;;;;;-1.66;76.46;98886.75;5064101;28;20031;-64
2024/01/19 07:25:24;;;;;;;0.60;0.60;;;;;;;-1.69;76.68;98874.81;5064110;28;20017;-64
2024/01/19 07:27:49;;;;;;;0.60;0.60;;;;;;;-1.61;77.13;98895.31;5063696;28;20032;-63
2024/01/19 07:30:15;;;;;;;0.60;0.60;;;;;;;-1.65;76.34;98898.66;5064093;28;20086;-63
2024/01/19 07:32:40;;;;;;;1.13;1.13;;;;;;;-1.70;76.01;98897.72;5063899;28;20025;-63
2024/01/19 07:35:06;;;;;;;0.60;0.60;;;;;;;-1.67;76.08;98902.84;5062553;28;20025;-65
2024/01/19 07:37:31;;;;;;;1.60;1.40;;;;;;;-1.73;75.17;98892.56;5064011;28;20060;-63
2024/01/19 07:39:56;;;;;;;0.60;0.60;;;;;;;-1.65;75.88;98893.56;5063858;28;20080;-63
2024/01/19 07:42:22;;;;;;;0.70;0.70;;;;;;;-1.62;76.37;98901.25;5063895;28;20021;-63
2024/01/19 07:44:47;;;;;;;1.85;0.65;;;;;;;-1.63;76.09;98902.91;5063895;28;20475;-63
2024/01/19 07:47:13;;;;;;;1.05;0.95;;;;;;;-1.64;76.11;98898.69;5063641;28;20021;-64
2024/01/19 07:49:38;;;;;;;0.60;0.60;;;;;;;-1.64;75.91;98897.81;5062499;28;20418;-63
2024/01/19 07:52:04;;;;;;;0.60;0.60;;;;;;;-1.59;76.24;98908.94;5064063;28;20112;-63
2024/01/19 07:54:30;;;;;;;0.65;0.65;;;;;;;-1.58;76.24;98904.72;5025340;28;1108217;-63
2024/01/19 07:56:55;;;;;;;0.60;0.60;;;;;;;-1.57;75.89;98914.91;5064850;28;20037;-64
2024/01/19 07:59:20;;;;;;;1.05;1.05;;;;;;;-1.53;75.90;98923.44;5063257;28;20059;-63
2024/01/19 08:01:46;;;;;;;0.60;0.60;;;;;;;-1.55;76.25;98927.66;5064190;28;20517;-63
2024/01/19 08:04:11;;;;;;;0.52;0.52;;;;;;;-1.52;75.84;98925.16;5064252;28;20040;-63
2024/01/19 08:06:36;;;;;;;0.60;0.60;;;;;;;-1.44;75.22;98931.25;5064329;28;20407;-64
2024/01/19 08:09:02;;;;;;;0.95;0.88;;;;;;;-1.39;75.68;98927.06;5062962;28;20021;-63
2024/01/19 08:11:27;;;;;;;1.27;1.17;;;;;;;-1.25;75.23;98934.09;5067383;28;20091;-63
2024/01/19 08:13:53;;;;;;;0.50;0.50;;;;;;;-1.01;76.32;98942.94;5067951;28;20027;-63
2024/01/19 08:16:18;;;;;;;0.52;0.52;;;;;;;-0.53;76.54;98938.47;5068101;28;20021;-64
2024/01/19 08:18:43;;;;;;;1.58;0.80;;;;;;;-0.15;74.92;98936.41;5068042;28;20036;-64
2024/01/19 08:21:09;;;;;;;0.70;0.70;;;;;;;0.23;73.99;98941.06;5067934;28;20024;-63
2024/01/19 08:23:34;;;;;;;1.27;1.17;;;;;;;0.61;72.84;98942.25;5068082;28;20021;-63
2024/01/19 08:25:59;;;;;;;1.15;0.80;;;;;;;0.94;71.79;98942.47;5067874;28;20085;-63
2024/01/19 08:28:25;;;;;;;0.60;0.60;;;;;;;1.13;71.23;98954.53;5067747;28;20025;-63
2024/01/19 08:30:50;;;;;;;0.93;0.93;;;;;;;1.27;70.67;98959.75;5067882;28;20421;-63
2024/01/19 08:33:15;;;;;;;0.50;0.50;;;;;;;1.45;69.97;98956.44;5067765;28;20028;-62
2024/01/19 08:35:42;;;;;;;1.50;1.40;;;;;;;1.41;69.80;98962.38;5067604;28;20029;-63
2024/01/19 08:38:07;;;;;;;0.70;0.70;;;;;;;1.29;69.81;98955.50;5067665;28;20053;-61
2024/01/19 08:40:32;;;;;;;22.85;1.73;;;;;;;1.36;70.51;98970.03;5067603;28;20028;-62
2024/01/19 08:42:58;;;;;;;1.30;0.90;;;;;;;1.33;70.31;98950.41;5067675;28;20013;-63
2024/01/19 08:45:24;;;;;;;0.50;0.50;;;;;;;1.56;70.21;98966.72;5067689;28;20021;-61
2024/01/19 08:47:50;;;;;;;0.50;0.50;;;;;;;1.46;70.35;98966.69;5066051;28;20119;-64
2024/01/19 08:50:15;;;;;;;0.75;0.75;;;;;;;1.34;70.46;98966.63;5067218;28;20029;-62
2024/01/19 08:52:41;;;;;;;0.80;0.80;;;;;;;1.24;70.98;98958.03;5067084;28;20025;-62
2024/01/19 08:55:06;;;;;;;0.70;0.70;;;;;;;1.14;71.44;98967.34;5067387;28;20037;-64
2024/01/19 08:57:32;;;;;;;0.57;0.57;;;;;;;1.01;71.82;98968.09;5067376;28;20047;-62
2024/01/19 08:59:57;;;;;;;0.50;0.50;;;;;;;0.85;71.99;98950.94;5067163;28;20032;-62
2024/01/19 09:02:23;;;;;;;0.55;0.55;;;;;;;0.94;72.15;98975.69;5067216;28;20017;-63
2024/01/19 09:04:48;;;;;;;0.50;0.50;;;;;;;0.88;72.88;98973.09;5067176;28;20055;-62
2024/01/19 09:07:14;;;;;;;0.60;0.60;;;;;;;0.95;73.99;98967.22;5066968;28;20025;-62
2024/01/19 09:09:40;;;;;;;0.45;0.45;;;;;;;1.15;73.88;98973.31;5065806;28;20043;-62
2024/01/19 09:12:06;;;;;;;0.60;0.60;;;;;;;1.29;74.38;98981.94;5065881;28;20020;-63
2024/01/19 09:14:31;;;;;;;0.65;0.65;;;;;;;1.60;74.96;98971.00;5065628;28;20028;-63
2024/01/19 09:16:58;;;;;;;0.50;0.50;;;;;;;2.06;74.56;98964.38;5066941;28;20382;-63
2024/01/19 09:19:23;;;;;;;2.65;0.65;;;;;;;2.63;75.46;98973.88;5065449;28;20021;-63
2024/01/19 09:21:50;;;;;;;1.02;1.02;;;;;;;3.25;75.15;98977.25;5065625;28;20020;-63
2024/01/19 09:24:16;;;;;;;1.02;0.93;;;;;;;3.79;73.07;98979.69;5065660;28;20082;-63
2024/01/19 09:26:41;;;;;;;0.40;0.40;;;;;;;4.15;71.17;98976.97;5066808;28;20431;-64
2024/01/19 09:29:08;;;;;;;0.50;0.50;;;;;;;4.29;70.62;98970.88;5066643;28;20028;-62
2024/01/19 09:31:43;;;;;;;4.43;1.58;;;;;;;4.62;68.67;98974.09;5066669;28;20053;-63
2024/01/19 09:34:09;;;;;;;2.22;0.93;;;;;;;4.82;67.54;98979.09;5066650;28;20049;-63
2024/01/19 09:36:34;;;;;;;0.70;0.70;;;;;;;4.66;66.42;98968.09;5066479;28;20028;-63
2024/01/19 09:39:00;;;;;;;0.50;0.50;;;;;;;4.22;67.18;98965.78;5066693;28;20036;-64
2024/01/19 09:41:37;;;;;;;2.35;1.20;;;;;;;4.14;67.73;98977.81;5066438;28;20025;-64
2024/01/19 09:44:07;;;;;;;0.50;0.50;;;;;;;3.76;67.79;98984.84;5066580;28;20481;-64
2024/01/19 09:46:57;;;;;;;1.42;0.82;;;;;;;3.29;67.97;98990.06;5066337;28;20127;-64
2024/01/19 09:49:41;;;;;;;0.77;0.77;;;;;;;2.69;68.37;98983.25;5058593;28;20044;-65
2024/01/19 09:52:12;;;;;;;1.10;1.10;;;;;;;2.39;69.38;98992.63;5066120;28;20024;-64
2024/01/19 09:54:39;;;;;;;24.00;1.85;;;;;;;2.14;70.38;99001.06;5065962;28;20041;-64
2024/01/19 09:57:05;;;;;;;0.60;0.60;;;;;;;1.91;71.37;98995.88;5065977;28;20039;-64
2024/01/19 09:59:31;;;;;;;0.60;0.60;;;;;;;1.90;71.83;99012.09;5066230;28;20021;-64
2024/01/19 10:01:58;;;;;;;3.40;1.55;;;;;;;1.93;72.50;99010.38;5066170;28;20021;-64
2024/01/19 10:04:23;;;;;;;2.55;2.42;;;;;;;1.89;72.91;99016.34;5065789;28;20021;-64
2024/01/19 10:06:50;;;;;;;3.33;0.93;;;;;;;1.96;73.29;99018.09;5066016;28;20047;-63
2024/01/19 10:09:18;;;;;;;3.13;0.93;;;;;;;2.09;73.17;99011.31;5081452;28;20031;-63
2024/01/19 10:11:46;;;;;;;0.50;0.50;;;;;;;2.27;74.56;99016.50;5064750;28;20033;-63
2024/01/19 10:14:12;;;;;;;0.50;0.50;;;;;;;3.13;73.61;99020.00;5081323;28;20025;-63
2024/01/19 10:16:37;;;;;;;0.50;0.50;;;;;;;3.83;72.41;99034.44;5065764;28;20024;-63
2024/01/19 10:19:04;;;;;;;0.88;0.77;;;;;;;4.57;71.23;99029.81;5065996;28;20029;-63
2024/01/19 10:21:30;;;;;;;0.70;0.70;;;;;;;5.16;69.77;99023.44;5064311;28;20028;-64
2024/01/19 10:24:15;;;;;;;6.45;1.90;;;;;;;5.68;70.05;99024.63;5065846;28;20032;-64
2024/01/19 10:26:46;;;;;;;16.58;0.80;;;;;;;6.05;67.25;99032.84;5065457;28;20025;-63
2024/01/19 10:29:13;;;;;;;1.40;1.30;;;;;;;5.58;66.20;99035.88;5064342;28;20055;-63
2024/01/19 10:31:40;;;;;;;1.02;0.95;;;;;;;5.05;66.84;99039.78;5065877;28;20036;-64
2024/01/19 10:34:16;;;;;;;0.98;0.90;;;;;;;4.95;68.50;99045.88;5065319;28;20142;-62
2024/01/19 10:36:41;;;;;;;3.35;1.70;;;;;;;4.84;68.31;99045.94;5065549;28;20021;-64
2024/01/19 10:39:22;;;;;;;1.08;0.90;;;;;;;4.41;66.81;99062.50;5065408;28;20021;-63
2024/01/19 10:41:49;;;;;;;0.50;0.50;;;;;;;4.19;68.38;99054.84;5065171;28;20036;-62
2024/01/19 10:44:17;;;;;;;6.90;0.93;;;;;;;3.93;68.40;99054.09;5065235;28;20029;-62
2024/01/19 10:46:43;;;;;;;2.38;1.77;;;;;;;3.77;68.83;99053.28;5065225;28;20021;-64
2024/01/19 10:49:11;;;;;;;1.02;1.02;;;;;;;3.46;69.46;99058.47;5065429;28;20469;-64
2024/01/19 10:51:42;;;;;;;0.73;0.73;;;;;;;3.08;69.27;99053.34;5065226;28;20044;-64
2024/01/19 10:54:10;;;;;;;1.55;1.00;;;;;;;2.90;69.14;99064.47;5063799;28;20048;-63
2024/01/19 10:56:36;;;;;;;0.88;0.65;;;;;;;2.73;69.66;99075.53;5080337;28;20021;-62
2024/01/19 10:59:12;;;;;;;10.20;1.70;;;;;;;2.65;70.45;99082.34;5063971;28;20021;-62
2024/01/19 11:01:38;;;;;;;0.80;0.80;;;;;;;2.61;70.48;99085.75;5063825;28;20027;-63
2024/01/19 11:04:06;;;;;;;1.25;0.77;;;;;;;2.66;70.53;99091.75;5065185;28;20021;-65
2024/01/19 11:06:33;;;;;;;0.47;0.47;;;;;;;2.62;71.32;99081.50;5080280;28;20032;-63
2024/01/19 11:08:59;;;;;;;4.13;2.25;;;;;;;2.59;70.35;99083.19;5080156;28;20411;-64
2024/01/19 11:11:26;;;;;;;1.60;1.50;;;;;;;2.60;70.42;99095.13;5063791;28;20036;-64
2024/01/19 11:13:59;;;;;;;1.05;1.02;;;;;;;2.69;70.66;99091.75;5065237;28;20013;-64
2024/01/19 11:16:27;;;;;;;1.48;1.38;;;;;;;2.73;70.61;99096.03;5065018;28;20033;-63
2024/01/19 11:18:54;;;;;;;0.60;0.60;;;;;;;3.01;71.02;99092.66;5065021;28;20024;-64
2024/01/19 11:21:20;;;;;;;1.25;1.05;;;;;;;3.04;71.71;99096.94;5063510;28;20024;-64
2024/01/19 11:23:47;;;;;;;26.98;1.58;;;;;;;3.21;72.20;99102.09;5064943;28;20029;-64
2024/01/19 11:26:20;;;;;;;0.90;0.90;;;;;;;3.97;70.50;99107.16;5064937;28;20045;-64
2024/01/19 11:28:58;;;;;;;0.50;0.50;;;;;;;4.92;67.90;99098.19;5064351;28;20032;-64
2024/01/19 11:31:32;;;;;;;0.60;0.60;;;;;;;5.77;65.84;99103.50;5064057;28;20032;-67